• Join FlightAware (Why Join?)
  • Login
  • US Flag 
06:04AM EST


 

Airport Tracker/Info


-or-


 

Live Flight TrackerFlight Track Log ✈ N244A ✈ 10-Mar-2014 ✈ KMLB - KMDT

Flight Track Log - Related Links

Times and Time Zones

All times are in EDT time to prevent confusion due to time zone crossing. See the N244A flight status page for this flight to view local times or setup timezone preferences in your user account.

Time Position Orientation Groundspeed Altitude Reporting Facility
EDT Latitude Longitude Course Direction KTS MPH feet Rate Location/Type
08:18PM 28.1000 -80.6167 96° East 185 213 1,000  Level Orlando TRACON
08:19PM 28.1500 -80.5667 41° Northeast 281 323 3,600 2,100 Climbing Orlando TRACON
08:20PM 28.2000 -80.6167 319° Northwest 282 325 5,100 2,100 Climbing Orlando TRACON
08:21PM 28.2500 -80.6833 310° West 287 330 7,600 2,760 Climbing Orlando TRACON
08:22PM 28.3167 -80.7333 327° Northwest 289 333 10,700 2,280 Climbing Orlando TRACON
08:24PM 28.4322 -80.8508 318° Northwest 341 392 13,900 1,200 Climbing Jacksonville Center
08:25PM 28.5083 -80.9225 320° Northwest 351 404 14,000 1,020 Climbing Jacksonville Center
08:26PM 28.5844 -80.9919 321° Northwest 351 404 16,000 1,980 Climbing Jacksonville Center
08:27PM 28.6606 -81.0589 322° Northwest 351 404 18,000 1,980 Climbing Jacksonville Center
08:28PM 28.7389 -81.1308 321° Northwest 351 404 20,000 2,040 Climbing Jacksonville Center
08:29PM 28.8192 -81.2031 322° Northwest 357 411 22,100 2,040 Climbing Jacksonville Center
08:30PM 28.8953 -81.2775 319° Northwest 357 411 24,100 1,860 Climbing Jacksonville Center
08:31PM 28.9775 -81.3497 322° Northwest 357 411 25,900 1,620 Climbing Jacksonville Center
08:32PM 29.0739 -81.3911 339° North 362 417 27,400 1,500 Climbing Jacksonville Center
08:33PM 29.1847 -81.3989 356° North 368 423 28,900 1,260 Climbing Jacksonville Center
08:34PM 29.2933 -81.4092 355° North 382 440 30,000 1,080 Climbing Jacksonville Center
08:35PM 29.4000 -81.4219 354° North 388 447 31,100 1,080 Climbing Jacksonville Center
08:36PM 29.5044 -81.4347 354° North 388 447 32,200 1,080 Climbing Jacksonville Center
08:37PM 29.6133 -81.4450 355° North 388 447 33,300 840 Climbing Jacksonville Center
08:38PM 29.7219 -81.4528 356° North 388 447 33,900 660 Climbing Jacksonville Center
08:39PM 29.8325 -81.4656 354° North 388 447 34,700 660 Climbing Jacksonville Center
08:40PM 29.9456 -81.4736 356° North 388 447 35,300 660 Climbing Jacksonville Center
08:41PM 30.0561 -81.4839 355° North 393 452 36,100 660 Climbing Jacksonville Center
08:42PM 30.1586 -81.4944 355° North 398 458 36,700 600 Climbing Jacksonville Center
08:43PM 30.2653 -81.5025 356° North 398 458 37,300 480 Climbing Jacksonville Center
08:44PM 30.3758 -81.5106 356° North 393 452 37,700 360 Climbing Jacksonville Center
08:45PM 30.4864 -81.5017 North 393 452 38,100 360 Climbing Jacksonville Center
08:46PM 30.5992 -81.4903 North 399 459 38,500 360 Climbing Jacksonville Center
08:47PM 30.7097 -81.4839 North 399 459 38,900 180 Climbing Jacksonville Center
08:48PM 30.8181 -81.4725 North 399 459 38,900  Level Jacksonville Center
08:49PM 30.9328 -81.4419 13° North 409 471 38,900  Level Jacksonville Center
08:50PM 31.0467 -81.3697 29° Northeast 430 495 39,000  Climbing Jacksonville Center
08:51PM 31.1564 -81.2878 33° Northeast 443 510 39,000  Level Jacksonville Center
08:52PM 31.2681 -81.2083 31° Northeast 460 529 39,000  Level Jacksonville Center
08:53PM 31.3922 -81.1208 31° Northeast 466 536 39,000  Level Jacksonville Center
08:54PM 31.4956 -81.0481 31° Northeast 466 536 39,000  Level Jacksonville Center
08:55PM 31.6153 -80.9606 32° Northeast 461 531 39,000  Level Jacksonville Center
08:56PM 31.7289 -80.8822 30° Northeast 468 539 39,000  Level Jacksonville Center
08:57PM 31.8281 -80.8117 31° Northeast 468 539 39,000  Level Jacksonville Center
08:58PM 31.9517 -80.7233 31° Northeast 468 539 39,000  Level Jacksonville Center
08:59PM 32.0528 -80.6497 32° Northeast 463 533 39,000 -60 Level Jacksonville Center
09:00PM 32.1722 -80.5608 32° Northeast 463 533 38,900 -60 Descending Jacksonville Center
09:01PM 32.2836 -80.4844 30° Northeast 458 527 38,900  Level Jacksonville Center
09:02PM 32.3925 -80.4028 32° Northeast 458 527 38,900  Level Jacksonville Center
09:03PM 32.5036 -80.3233 31° Northeast 458 527 39,000  Climbing Jacksonville Center
09:04PM 32.6169 -80.2411 31° Northeast 464 534 38,900 -60 Descending Jacksonville Center
09:05PM 32.7258 -80.1614 32° Northeast 464 534 38,900  Level Jacksonville Center
09:06PM 32.8264 -80.0869 32° Northeast 470 541 38,900  Level Jacksonville Center
09:07PM 32.9372 -80.0042 32° Northeast 465 535 38,900  Level Jacksonville Center
09:08PM 33.0506 -79.9361 27° Northeast 460 529 38,900  Level Jacksonville Center
09:09PM 33.1636 -79.8703 26° Northeast 449 517 38,900  Level Jacksonville Center
09:10PM 33.2789 -79.7992 27° Northeast 449 517 38,900  Level Jacksonville Center
09:11PM 33.3919 -79.7283 28° Northeast 449 517 38,900  Level Jacksonville Center
09:12PM 33.5050 -79.6569 28° Northeast 449 517 38,900  Level Jacksonville Center
09:13PM 33.6178 -79.5856 28° Northeast 449 517 38,900  Level Jacksonville Center
09:14PM 33.7347 -79.5111 28° Northeast 449 517 38,900  Level Jacksonville Center
09:15PM 33.8497 -79.4392 27° Northeast 449 517 38,900  Level Jacksonville Center
09:16PM 33.9706 -79.3644 27° Northeast 449 517 38,900  Level Jacksonville Center
09:17PM 34.0875 -79.2919 27° Northeast 449 517 38,900  Level Jacksonville Center
09:18PM 34.2044 -79.2169 28° Northeast 455 524 38,900  Level Jacksonville Center
09:19PM 34.3897 -79.0950 29° Northeast 470 541 39,000  Climbing Washington Center
09:20PM 34.5044 -79.0219 28° Northeast 470 541 38,900  Descending Washington Center
09:21PM 34.6214 -78.9436 29° Northeast 465 535 39,000  Climbing Washington Center
09:22PM 34.7383 -78.8675 28° Northeast 470 541 39,000  Level Washington Center
09:23PM 34.8553 -78.7886 29° Northeast 470 541 39,000  Level Washington Center
09:24PM 34.9719 -78.7147 27° Northeast 470 541 39,000  Level Washington Center
09:25PM 35.0886 -78.6356 29° Northeast 470 541 39,000  Level Washington Center
09:26PM 35.2097 -78.5586 27° Northeast 470 541 39,000  Level Washington Center
09:27PM 35.3242 -78.4814 29° Northeast 470 541 39,000  Level Washington Center
09:28PM 35.4472 -78.3992 29° Northeast 483 556 39,000 -360 Level Washington Center
09:29PM 35.5681 -78.3167 29° Northeast 489 563 38,400 -600 Descending Washington Center
09:30PM 35.7014 -78.2317 27° Northeast 489 563 37,900 -660 Descending Washington Center
09:31PM 35.8178 -78.1536 29° Northeast 489 563 37,200 -540 Descending Washington Center
09:32PM 35.9383 -78.0728 28° Northeast 483 556 36,900 -180 Descending Washington Center
09:33PM 36.0569 -77.9942 28° Northeast 483 556 36,900  Level Washington Center
09:34PM 36.1753 -77.9156 28° Northeast 478 550 36,900  Level Washington Center
09:35PM 36.2917 -77.8364 29° Northeast 478 550 36,900  Level Washington Center
09:36PM 36.4100 -77.7547 29° Northeast 478 550 36,900  Level Washington Center
09:37PM 36.5133 -77.6800 30° Northeast 478 550 36,900  Level Washington Center
09:38PM 36.6400 -77.5928 29° Northeast 472 543 36,900 -540 Level Washington Center
09:39PM 36.7539 -77.5156 29° Northeast 467 537 35,900 -1,440 Descending Washington Center
09:40PM 36.8658 -77.4378 29° Northeast 462 532 34,100 -1,860 Descending Washington Center
09:41PM 36.9797 -77.3625 28° Northeast 462 532 32,300 -1,740 Descending Washington Center
09:42PM 37.0956 -77.2817 29° Northeast 462 532 30,600 -1,260 Descending Washington Center
09:43PM 37.2092 -77.1983 30° Northeast 468 539 29,900 -1,140 Descending Washington Center
09:44PM 37.3250 -77.1197 28° Northeast 462 532 28,400 -1,560 Descending Washington Center
09:45PM 37.4450 -77.0331 30° Northeast 482 555 26,800 -1,380 Descending Washington Center
09:46PM 37.5522 -76.9514 31° Northeast 495 570 25,700 -1,080 Descending Washington Center
09:47PM 37.6700 -76.8617 31° Northeast 495 570 24,700 -1,020 Descending Washington Center
09:48PM 37.7900 -76.7742 30° Northeast 490 564 23,700 -900 Descending Washington Center
09:49PM 37.9056 -76.6867 31° Northeast 490 564 23,000 -360 Descending Washington Center
09:50PM 38.0167 -76.6039 30° Northeast 480 552 23,000  Level Washington Center
09:51PM 38.1278 -76.5183 31° Northeast 469 540 23,000  Level Washington Center
09:52PM 38.2389 -76.4378 30° Northeast 464 534 23,000  Level Washington Center
09:53PM 38.3519 -76.3700 25° Northeast 456 525 23,000  Level Washington Center
09:54PM 38.4689 -76.3447 10° North 435 501 23,000  Level Washington Center
09:55PM 38.5881 -76.3142 11° North 430 495 23,000  Level Washington Center
09:56PM 38.7050 -76.2753 15° North 430 495 23,000 -300 Level Washington Center
09:57PM 38.8217 -76.2711 North 430 495 22,400 -780 Descending Washington Center
09:58PM 38.9300 -76.3200 341° North 410 472 21,500 -900 Descending Washington Center
10:00PM 39.1514 -76.4417 337° Northwest 436 502 19,800 -1,140 Descending New York Center
10:01PM 39.2592 -76.4986 338° Northwest 430 495 18,300 -1,560 Descending New York Center
10:02PM 39.3425 -76.5456 336° Northwest 397 457 16,700 -1,800 Descending New York Center
10:03PM 39.4622 -76.6092 338° Northwest 407 468 14,800 -1,560 Descending New York Center
10:04PM 39.5592 -76.6306 350° North 384 442 13,600 -1,440 Descending New York Center
10:05PM 39.6506 -76.6408 355° North 338 389 12,000 -1,560 Descending New York Center
10:06PM 39.7331 -76.6561 352° North 311 358 10,600 -1,500 Descending New York Center
10:07PM 39.8108 -76.6464 North 284 327 9,100 -900 Descending New York Center
10:08PM 39.8850 -76.6228 14° North 273 314 8,900 -720 Descending New York Center
10:09PM 39.9572 -76.6342 353° North 262 302 7,700 -1,200 Descending New York Center
10:10PM 40.0278 -76.6456 353° North 256 295 6,600 -1,440 Descending New York Center
10:11PM 40.0983 -76.6514 356° North 251 289 4,900 -1,320 Descending New York Center
10:12PM 40.1606 -76.6567 356° North 256 295 4,000 -480 Descending New York Center
10:13PM 40.2133 -76.6831 339° North 226 260 4,000 -60 Level New York Center
10:14PM 40.2481 -76.7403 308° West 187 215 3,900 -540 Descending New York Center
10:15PM 40.2683 -76.7911 298° West 169 194 3,000 -600 Descending New York Center
10:16PM 40.2869 -76.8389 297° West 146 168 2,800 -240 Descending New York Center
10:20PM 40.2687 -76.8673 134° Southeast  Level FlightAware Approximate
10:27PM 40.1932 -76.7626 134° Southeast  Level Estimated